ARG1789 SARI-SABE
Flight info
| Callsign | ARG1789 |
|---|---|
| Flight time | N/A |
| Altitude | 36000 |
| Route | NAIDE1C NAIDE UT667 GEMSU UN785 GUA UZ129 PAGON PAGON7U |
| Aircraft | E190/M-SDE3GILORVW/S |
Departure
| Time | 2026-04-30 13:38 |
|---|---|
| Airport | Cataratas Del Iguazú International Airport (SARI) |
Arrival
| Time | N/A |
|---|---|
| Airport | Aeroparque Jorge Newbery (SABE) |
| Time | Latitude | Longitude | Altitude | Speed | Heading |
|---|---|---|---|---|---|
| 2026-04-30 13:18 | -25.73237 | -54.47656 | 926 ft | 0 kts | 16° |
| 2026-04-30 13:25 | -25.73238 | -54.47656 | 926 ft | 1 kts | 16° |
| 2026-04-30 13:25 | -25.73271 | -54.47672 | 926 ft | 6 kts | 32° |
| 2026-04-30 13:26 | -25.73307 | -54.47689 | 926 ft | 4 kts | 295° |
| 2026-04-30 13:28 | -25.73319 | -54.47661 | 926 ft | 3 kts | 295° |
| 2026-04-30 13:28 | -25.73323 | -54.47652 | 926 ft | 1 kts | 300° |
| 2026-04-30 13:29 | -25.73291 | -54.47664 | 926 ft | 3 kts | 307° |
| 2026-04-30 13:29 | -25.73289 | -54.47668 | 926 ft | 0 kts | 296° |
| 2026-04-30 13:31 | -25.73270 | -54.47710 | 926 ft | 9 kts | 296° |
| 2026-04-30 13:31 | -25.73222 | -54.47836 | 926 ft | 0 kts | 266° |
| 2026-04-30 13:32 | -25.73224 | -54.47864 | 926 ft | 0 kts | 266° |
| 2026-04-30 13:32 | -25.73249 | -54.47902 | 926 ft | 10 kts | 232° |
| 2026-04-30 13:33 | -25.73270 | -54.48124 | 926 ft | 15 kts | 266° |
| 2026-04-30 13:33 | -25.73282 | -54.48258 | 926 ft | 6 kts | 262° |
| 2026-04-30 13:34 | -25.73291 | -54.48334 | 926 ft | 11 kts | 262° |
| 2026-04-30 13:34 | -25.73236 | -54.48522 | 926 ft | 16 kts | 295° |
| 2026-04-30 13:35 | -25.73181 | -54.48652 | 926 ft | 20 kts | 295° |
| 2026-04-30 13:35 | -25.73132 | -54.48763 | 926 ft | 4 kts | 135° |
| 2026-04-30 13:36 | -25.73145 | -54.48739 | 926 ft | 0 kts | 116° |
| 2026-04-30 13:36 | -25.73146 | -54.48737 | 926 ft | 2 kts | 116° |
| 2026-04-30 13:37 | -25.73274 | -54.48433 | 926 ft | 87 kts | 115° |
| 2026-04-30 13:37 | -25.74090 | -54.46478 | 1430 ft | 169 kts | 114° |
| 2026-04-30 13:38 | -25.75115 | -54.43948 | 3004 ft | 186 kts | 114° |
| 2026-04-30 13:38 | -25.75667 | -54.42634 | 3748 ft | 204 kts | 111° |
| 2026-04-30 13:38 | -25.77121 | -54.39254 | 4439 ft | 277 kts | 120° |
| 2026-04-30 13:39 | -25.80508 | -54.37212 | 6357 ft | 284 kts | 174° |
| 2026-04-30 13:39 | -25.84452 | -54.37029 | 8473 ft | 288 kts | 180° |
| 2026-04-30 13:40 | -25.86486 | -54.36931 | 9437 ft | 292 kts | 179° |
| 2026-04-30 13:40 | -25.88537 | -54.36819 | 10381 ft | 296 kts | 179° |
| 2026-04-30 13:40 | -25.90595 | -54.36707 | 11279 ft | 300 kts | 179° |
| 2026-04-30 13:40 | -25.92747 | -54.36599 | 11771 ft | 321 kts | 179° |
| 2026-04-30 13:41 | -25.95039 | -54.36494 | 12277 ft | 336 kts | 179° |
| 2026-04-30 13:41 | -25.97392 | -54.36387 | 13144 ft | 338 kts | 179° |
| 2026-04-30 13:41 | -25.99742 | -54.36279 | 14112 ft | 337 kts | 179° |
| 2026-04-30 13:41 | -26.02087 | -54.36171 | 15003 ft | 338 kts | 180° |
| 2026-04-30 13:42 | -26.04455 | -54.36063 | 15762 ft | 343 kts | 180° |
| 2026-04-30 13:42 | -26.06863 | -54.35954 | 16433 ft | 349 kts | 180° |
| 2026-04-30 13:42 | -26.11774 | -54.35731 | 17700 ft | 361 kts | 180° |
| 2026-04-30 13:43 | -26.14296 | -54.35616 | 18350 ft | 365 kts | 180° |
| 2026-04-30 13:43 | -26.16880 | -54.35497 | 19008 ft | 369 kts | 180° |